sensor_id;sensor_type;location;lat;lon;timestamp;temperature;humidity
21121;DHT22;12519;43.318;21.898;2022-10-16T00:03:35;14.2;83.0
21121;DHT22;12519;43.318;21.898;2022-10-16T00:08:13;14.2;83.0
21121;DHT22;12519;43.318;21.898;2022-10-16T00:12:49;14.1;83.0
21121;DHT22;12519;43.318;21.898;2022-10-16T00:17:26;14.1;83.0
21121;DHT22;12519;43.318;21.898;2022-10-16T00:22:03;14.2;83.0
21121;DHT22;12519;43.318;21.898;2022-10-16T00:26:40;14.2;83.0
21121;DHT22;12519;43.318;21.898;2022-10-16T00:31:22;14.2;84.0
21121;DHT22;12519;43.318;21.898;2022-10-16T00:36:04;14.2;84.0
21121;DHT22;12519;43.318;21.898;2022-10-16T00:40:43;14.2;84.0
21121;DHT22;12519;43.318;21.898;2022-10-16T00:45:20;14.2;84.0
21121;DHT22;12519;43.318;21.898;2022-10-16T00:50:08;14.2;84.0
21121;DHT22;12519;43.318;21.898;2022-10-16T00:54:57;14.1;84.0
21121;DHT22;12519;43.318;21.898;2022-10-16T00:59:42;14.1;84.0
21121;DHT22;12519;43.318;21.898;2022-10-16T01:04:20;14.0;84.0
21121;DHT22;12519;43.318;21.898;2022-10-16T01:09:20;14.0;84.0
21121;DHT22;12519;43.318;21.898;2022-10-16T01:14:42;13.9;85.0
21121;DHT22;12519;43.318;21.898;2022-10-16T01:20:06;13.9;85.0
21121;DHT22;12519;43.318;21.898;2022-10-16T01:25:14;13.8;85.0
21121;DHT22;12519;43.318;21.898;2022-10-16T01:30:18;13.8;85.0
21121;DHT22;12519;43.318;21.898;2022-10-16T01:35:18;13.7;86.0
21121;DHT22;12519;43.318;21.898;2022-10-16T01:40:13;13.7;86.0
21121;DHT22;12519;43.318;21.898;2022-10-16T01:45:00;13.6;86.0
21121;DHT22;12519;43.318;21.898;2022-10-16T01:49:45;13.6;86.0
21121;DHT22;12519;43.318;21.898;2022-10-16T01:54:29;13.5;87.0
21121;DHT22;12519;43.318;21.898;2022-10-16T01:59:21;13.5;87.0
21121;DHT22;12519;43.318;21.898;2022-10-16T02:04:21;13.4;87.0
21121;DHT22;12519;43.318;21.898;2022-10-16T02:09:05;13.4;87.0
21121;DHT22;12519;43.318;21.898;2022-10-16T02:13:52;13.4;87.0
21121;DHT22;12519;43.318;21.898;2022-10-16T02:18:31;13.4;87.0
21121;DHT22;12519;43.318;21.898;2022-10-16T02:23:27;13.3;87.0
21121;DHT22;12519;43.318;21.898;2022-10-16T02:28:25;13.3;87.0
21121;DHT22;12519;43.318;21.898;2022-10-16T02:33:12;13.2;88.0
21121;DHT22;12519;43.318;21.898;2022-10-16T02:37:53;13.2;88.0
21121;DHT22;12519;43.318;21.898;2022-10-16T02:42:39;13.1;88.0
21121;DHT22;12519;43.318;21.898;2022-10-16T02:47:16;13.1;88.0
21121;DHT22;12519;43.318;21.898;2022-10-16T02:51:53;13.0;88.0
21121;DHT22;12519;43.318;21.898;2022-10-16T02:56:30;13.0;88.0
21121;DHT22;12519;43.318;21.898;2022-10-16T03:01:07;13.0;88.0
21121;DHT22;12519;43.318;21.898;2022-10-16T03:05:44;13.0;88.0
21121;DHT22;12519;43.318;21.898;2022-10-16T03:10:21;13.0;88.0
21121;DHT22;12519;43.318;21.898;2022-10-16T03:14:58;12.9;89.0
21121;DHT22;12519;43.318;21.898;2022-10-16T03:19:35;12.9;89.0
21121;DHT22;12519;43.318;21.898;2022-10-16T03:24:11;12.8;89.0
21121;DHT22;12519;43.318;21.898;2022-10-16T03:28:48;12.8;89.0
21121;DHT22;12519;43.318;21.898;2022-10-16T03:33:25;12.8;89.0
21121;DHT22;12519;43.318;21.898;2022-10-16T03:38:01;12.8;89.0
21121;DHT22;12519;43.318;21.898;2022-10-16T03:42:38;12.8;89.0
21121;DHT22;12519;43.318;21.898;2022-10-16T03:47:15;12.8;89.0
21121;DHT22;12519;43.318;21.898;2022-10-16T03:51:52;12.7;89.0
21121;DHT22;12519;43.318;21.898;2022-10-16T03:56:29;12.7;89.0
21121;DHT22;12519;43.318;21.898;2022-10-16T04:01:06;12.7;89.0
21121;DHT22;12519;43.318;21.898;2022-10-16T04:05:43;12.6;89.0
21121;DHT22;12519;43.318;21.898;2022-10-16T04:10:20;12.6;89.0
21121;DHT22;12519;43.318;21.898;2022-10-16T04:14:56;12.5;89.0
21121;DHT22;12519;43.318;21.898;2022-10-16T04:19:33;12.5;89.0
21121;DHT22;12519;43.318;21.898;2022-10-16T04:24:09;12.5;90.0
21121;DHT22;12519;43.318;21.898;2022-10-16T04:28:46;12.5;90.0
21121;DHT22;12519;43.318;21.898;2022-10-16T04:33:23;12.5;90.0
21121;DHT22;12519;43.318;21.898;2022-10-16T04:37:59;12.5;90.0
21121;DHT22;12519;43.318;21.898;2022-10-16T04:42:36;12.4;90.0
21121;DHT22;12519;43.318;21.898;2022-10-16T04:47:13;12.4;90.0
21121;DHT22;12519;43.318;21.898;2022-10-16T04:57:07;12.3;90.0
21121;DHT22;12519;43.318;21.898;2022-10-16T05:01:46;12.2;90.0
21121;DHT22;12519;43.318;21.898;2022-10-16T05:06:22;12.2;90.0
21121;DHT22;12519;43.318;21.898;2022-10-16T05:10:59;12.2;90.0
21121;DHT22;12519;43.318;21.898;2022-10-16T05:15:36;12.2;90.0
21121;DHT22;12519;43.318;21.898;2022-10-16T05:20:13;12.2;90.0
21121;DHT22;12519;43.318;21.898;2022-10-16T05:24:50;12.1;90.0
21121;DHT22;12519;43.318;21.898;2022-10-16T05:29:27;12.1;90.0
21121;DHT22;12519;43.318;21.898;2022-10-16T05:34:05;12.1;90.0
21121;DHT22;12519;43.318;21.898;2022-10-16T05:38:42;12.1;90.0
21121;DHT22;12519;43.318;21.898;2022-10-16T05:43:20;12.0;90.0
21121;DHT22;12519;43.318;21.898;2022-10-16T05:47:57;12.0;90.0
21121;DHT22;12519;43.318;21.898;2022-10-16T05:52:34;12.0;90.0
21121;DHT22;12519;43.318;21.898;2022-10-16T05:57:11;12.0;90.0
21121;DHT22;12519;43.318;21.898;2022-10-16T06:01:48;12.0;90.0
21121;DHT22;12519;43.318;21.898;2022-10-16T06:06:28;12.0;90.0
21121;DHT22;12519;43.318;21.898;2022-10-16T06:11:12;12.0;90.0
21121;DHT22;12519;43.318;21.898;2022-10-16T06:15:52;12.1;90.0
21121;DHT22;12519;43.318;21.898;2022-10-16T06:20:28;12.1;90.0
21121;DHT22;12519;43.318;21.898;2022-10-16T06:25:07;12.2;90.0
21121;DHT22;12519;43.318;21.898;2022-10-16T06:29:45;12.2;90.0
21121;DHT22;12519;43.318;21.898;2022-10-16T06:34:22;12.3;90.0
21121;DHT22;12519;43.318;21.898;2022-10-16T06:38:59;12.3;90.0
21121;DHT22;12519;43.318;21.898;2022-10-16T06:43:35;12.4;90.0
21121;DHT22;12519;43.318;21.898;2022-10-16T06:48:12;12.4;90.0
21121;DHT22;12519;43.318;21.898;2022-10-16T06:52:49;12.5;90.0
21121;DHT22;12519;43.318;21.898;2022-10-16T06:57:26;12.5;90.0
21121;DHT22;12519;43.318;21.898;2022-10-16T07:02:03;12.6;90.0
21121;DHT22;12519;43.318;21.898;2022-10-16T07:06:40;12.6;90.0
21121;DHT22;12519;43.318;21.898;2022-10-16T07:11:23;12.6;90.0
21121;DHT22;12519;43.318;21.898;2022-10-16T07:16:05;12.7;90.0
21121;DHT22;12519;43.318;21.898;2022-10-16T07:20:47;12.7;90.0
21121;DHT22;12519;43.318;21.898;2022-10-16T07:25:24;13.2;89.0
21121;DHT22;12519;43.318;21.898;2022-10-16T07:30:01;13.2;89.0
21121;DHT22;12519;43.318;21.898;2022-10-16T07:34:37;13.8;88.0
21121;DHT22;12519;43.318;21.898;2022-10-16T07:39:13;13.8;88.0
21121;DHT22;12519;43.318;21.898;2022-10-16T07:43:53;14.6;86.0
21121;DHT22;12519;43.318;21.898;2022-10-16T07:48:34;14.6;86.0
21121;DHT22;12519;43.318;21.898;2022-10-16T07:53:13;15.5;84.0
21121;DHT22;12519;43.318;21.898;2022-10-16T07:57:49;15.5;84.0
21121;DHT22;12519;43.318;21.898;2022-10-16T08:02:26;16.0;83.0
21121;DHT22;12519;43.318;21.898;2022-10-16T08:07:02;16.0;83.0
21121;DHT22;12519;43.318;21.898;2022-10-16T08:11:39;16.0;83.0
21121;DHT22;12519;43.318;21.898;2022-10-16T08:16:15;16.6;82.0
21121;DHT22;12519;43.318;21.898;2022-10-16T08:20:58;16.6;82.0
21121;DHT22;12519;43.318;21.898;2022-10-16T08:25:37;16.7;81.0
21121;DHT22;12519;43.318;21.898;2022-10-16T08:30:21;16.7;81.0
21121;DHT22;12519;43.318;21.898;2022-10-16T08:35:00;16.8;80.0
21121;DHT22;12519;43.318;21.898;2022-10-16T08:39:37;16.8;80.0
21121;DHT22;12519;43.318;21.898;2022-10-16T08:45:07;16.8;80.0
21121;DHT22;12519;43.318;21.898;2022-10-16T08:50:27;16.8;80.0
21121;DHT22;12519;43.318;21.898;2022-10-16T08:55:34;16.9;80.0
21121;DHT22;12519;43.318;21.898;2022-10-16T09:00:20;16.9;80.0
21121;DHT22;12519;43.318;21.898;2022-10-16T09:05:49;17.3;80.0
21121;DHT22;12519;43.318;21.898;2022-10-16T09:11:08;17.3;80.0
21121;DHT22;12519;43.318;21.898;2022-10-16T09:16:28;17.7;79.0
21121;DHT22;12519;43.318;21.898;2022-10-16T09:21:26;17.7;79.0
21121;DHT22;12519;43.318;21.898;2022-10-16T09:26:17;17.9;79.0
21121;DHT22;12519;43.318;21.898;2022-10-16T09:30:55;17.9;79.0
21121;DHT22;12519;43.318;21.898;2022-10-16T09:35:42;18.1;78.0
21121;DHT22;12519;43.318;21.898;2022-10-16T09:40:34;18.1;78.0
21121;DHT22;12519;43.318;21.898;2022-10-16T09:45:24;18.2;78.0
21121;DHT22;12519;43.318;21.898;2022-10-16T09:50:24;18.2;78.0
21121;DHT22;12519;43.318;21.898;2022-10-16T09:55:18;18.3;78.0
21121;DHT22;12519;43.318;21.898;2022-10-16T09:59:58;18.3;78.0
21121;DHT22;12519;43.318;21.898;2022-10-16T10:04:53;18.5;78.0
21121;DHT22;12519;43.318;21.898;2022-10-16T10:09:39;18.5;78.0
21121;DHT22;12519;43.318;21.898;2022-10-16T10:14:28;18.7;77.0
21121;DHT22;12519;43.318;21.898;2022-10-16T10:19:18;18.7;77.0
21121;DHT22;12519;43.318;21.898;2022-10-16T10:23:56;18.9;76.0
21121;DHT22;12519;43.318;21.898;2022-10-16T10:29:05;18.9;76.0
21121;DHT22;12519;43.318;21.898;2022-10-16T10:34:03;19.1;76.0
21121;DHT22;12519;43.318;21.898;2022-10-16T10:39:06;19.1;76.0
21121;DHT22;12519;43.318;21.898;2022-10-16T10:44:20;19.3;75.0
21121;DHT22;12519;43.318;21.898;2022-10-16T10:50:07;19.3;75.0
21121;DHT22;12519;43.318;21.898;2022-10-16T10:55:24;19.5;75.0
21121;DHT22;12519;43.318;21.898;2022-10-16T11:00:42;19.5;75.0
21121;DHT22;12519;43.318;21.898;2022-10-16T11:05:53;19.7;74.0
21121;DHT22;12519;43.318;21.898;2022-10-16T11:10:59;19.7;74.0
21121;DHT22;12519;43.318;21.898;2022-10-16T11:16:01;19.9;73.0
21121;DHT22;12519;43.318;21.898;2022-10-16T11:21:11;19.9;73.0
21121;DHT22;12519;43.318;21.898;2022-10-16T11:26:12;20.1;72.0
21121;DHT22;12519;43.318;21.898;2022-10-16T11:31:16;20.1;72.0
21121;DHT22;12519;43.318;21.898;2022-10-16T11:36:22;20.3;71.0
21121;DHT22;12519;43.318;21.898;2022-10-16T11:41:32;20.3;71.0
21121;DHT22;12519;43.318;21.898;2022-10-16T11:46:27;20.6;70.0
21121;DHT22;12519;43.318;21.898;2022-10-16T11:51:36;20.6;70.0
21121;DHT22;12519;43.318;21.898;2022-10-16T11:56:38;20.8;70.0
21121;DHT22;12519;43.318;21.898;2022-10-16T12:01:38;20.8;70.0
21121;DHT22;12519;43.318;21.898;2022-10-16T12:06:44;21.0;69.0
21121;DHT22;12519;43.318;21.898;2022-10-16T12:11:39;21.0;69.0
21121;DHT22;12519;43.318;21.898;2022-10-16T12:16:23;21.1;68.0
21121;DHT22;12519;43.318;21.898;2022-10-16T12:21:01;21.1;68.0
21121;DHT22;12519;43.318;21.898;2022-10-16T12:25:40;21.2;68.0
21121;DHT22;12519;43.318;21.898;2022-10-16T12:30:27;21.2;68.0
21121;DHT22;12519;43.318;21.898;2022-10-16T12:35:25;21.3;68.0
21121;DHT22;12519;43.318;21.898;2022-10-16T12:40:26;21.3;68.0
21121;DHT22;12519;43.318;21.898;2022-10-16T12:45:33;21.4;68.0
21121;DHT22;12519;43.318;21.898;2022-10-16T12:50:34;21.4;68.0
21121;DHT22;12519;43.318;21.898;2022-10-16T12:55:21;21.5;68.0
21121;DHT22;12519;43.318;21.898;2022-10-16T13:00:24;21.5;68.0
21121;DHT22;12519;43.318;21.898;2022-10-16T13:05:45;21.6;67.0
21121;DHT22;12519;43.318;21.898;2022-10-16T13:10:56;21.6;67.0
21121;DHT22;12519;43.318;21.898;2022-10-16T13:16:15;21.6;67.0
21121;DHT22;12519;43.318;21.898;2022-10-16T13:21:51;21.6;67.0
21121;DHT22;12519;43.318;21.898;2022-10-16T13:26:57;21.7;67.0
21121;DHT22;12519;43.318;21.898;2022-10-16T13:32:10;21.7;67.0
21121;DHT22;12519;43.318;21.898;2022-10-16T13:36:54;21.8;67.0
21121;DHT22;12519;43.318;21.898;2022-10-16T13:41:31;21.8;67.0
21121;DHT22;12519;43.318;21.898;2022-10-16T13:46:16;21.8;67.0
21121;DHT22;12519;43.318;21.898;2022-10-16T13:51:04;21.8;67.0
21121;DHT22;12519;43.318;21.898;2022-10-16T13:55:51;21.9;66.0
21121;DHT22;12519;43.318;21.898;2022-10-16T14:00:29;21.9;66.0
21121;DHT22;12519;43.318;21.898;2022-10-16T14:05:10;21.8;64.0
21121;DHT22;12519;43.318;21.898;2022-10-16T14:09:54;21.8;64.0
21121;DHT22;12519;43.318;21.898;2022-10-16T14:14:43;21.6;63.0
21121;DHT22;12519;43.318;21.898;2022-10-16T14:19:30;21.6;63.0
21121;DHT22;12519;43.318;21.898;2022-10-16T14:24:25;21.6;63.0
21121;DHT22;12519;43.318;21.898;2022-10-16T14:29:19;21.6;63.0
21121;DHT22;12519;43.318;21.898;2022-10-16T14:33:59;21.7;63.0
21121;DHT22;12519;43.318;21.898;2022-10-16T14:38:42;21.7;63.0
21121;DHT22;12519;43.318;21.898;2022-10-16T14:43:43;21.5;63.0
21121;DHT22;12519;43.318;21.898;2022-10-16T14:48:21;21.5;63.0
21121;DHT22;12519;43.318;21.898;2022-10-16T14:52:59;21.4;63.0
21121;DHT22;12519;43.318;21.898;2022-10-16T14:57:39;21.4;63.0
21121;DHT22;12519;43.318;21.898;2022-10-16T15:02:31;21.4;63.0
21121;DHT22;12519;43.318;21.898;2022-10-16T15:07:11;21.3;64.0
21121;DHT22;12519;43.318;21.898;2022-10-16T15:11:48;21.3;64.0
21121;DHT22;12519;43.318;21.898;2022-10-16T15:16:25;21.2;64.0
21121;DHT22;12519;43.318;21.898;2022-10-16T15:21:02;21.2;64.0
21121;DHT22;12519;43.318;21.898;2022-10-16T15:25:47;21.0;65.0
21121;DHT22;12519;43.318;21.898;2022-10-16T15:30:29;21.0;65.0
21121;DHT22;12519;43.318;21.898;2022-10-16T15:35:09;20.7;66.0
21121;DHT22;12519;43.318;21.898;2022-10-16T15:39:46;20.7;66.0
21121;DHT22;12519;43.318;21.898;2022-10-16T15:44:22;20.4;66.0
21121;DHT22;12519;43.318;21.898;2022-10-16T15:48:59;20.4;66.0
21121;DHT22;12519;43.318;21.898;2022-10-16T15:53:36;20.2;67.0
21121;DHT22;12519;43.318;21.898;2022-10-16T15:58:12;20.2;67.0
21121;DHT22;12519;43.318;21.898;2022-10-16T16:02:53;20.0;68.0
21121;DHT22;12519;43.318;21.898;2022-10-16T16:07:33;20.0;68.0
21121;DHT22;12519;43.318;21.898;2022-10-16T16:12:11;20.0;68.0
21121;DHT22;12519;43.318;21.898;2022-10-16T16:16:48;19.7;70.0
21121;DHT22;12519;43.318;21.898;2022-10-16T16:21:25;19.7;70.0
21121;DHT22;12519;43.318;21.898;2022-10-16T16:26:13;19.5;69.0
21121;DHT22;12519;43.318;21.898;2022-10-16T16:31:02;19.5;69.0
21121;DHT22;12519;43.318;21.898;2022-10-16T16:35:39;19.3;69.0
21121;DHT22;12519;43.318;21.898;2022-10-16T16:40:16;19.3;69.0
21121;DHT22;12519;43.318;21.898;2022-10-16T16:44:54;19.0;69.0
21121;DHT22;12519;43.318;21.898;2022-10-16T16:49:32;19.0;69.0
21121;DHT22;12519;43.318;21.898;2022-10-16T16:54:11;18.8;69.0
21121;DHT22;12519;43.318;21.898;2022-10-16T16:58:53;18.8;69.0
21121;DHT22;12519;43.318;21.898;2022-10-16T17:03:35;18.6;69.0
21121;DHT22;12519;43.318;21.898;2022-10-16T17:08:13;18.6;69.0
21121;DHT22;12519;43.318;21.898;2022-10-16T17:12:49;18.6;69.0
21121;DHT22;12519;43.318;21.898;2022-10-16T17:17:26;18.4;69.0
21121;DHT22;12519;43.318;21.898;2022-10-16T17:22:03;18.4;69.0
21121;DHT22;12519;43.318;21.898;2022-10-16T17:26:40;18.3;70.0
21121;DHT22;12519;43.318;21.898;2022-10-16T17:31:22;18.3;70.0
21121;DHT22;12519;43.318;21.898;2022-10-16T17:36:07;18.2;70.0
21121;DHT22;12519;43.318;21.898;2022-10-16T17:40:46;18.2;70.0
21121;DHT22;12519;43.318;21.898;2022-10-16T17:45:23;18.1;70.0
21121;DHT22;12519;43.318;21.898;2022-10-16T17:50:00;18.1;70.0
21121;DHT22;12519;43.318;21.898;2022-10-16T17:54:38;18.0;70.0
21121;DHT22;12519;43.318;21.898;2022-10-16T17:59:15;18.0;70.0
21121;DHT22;12519;43.318;21.898;2022-10-16T18:03:57;17.9;71.0
21121;DHT22;12519;43.318;21.898;2022-10-16T18:08:40;17.9;71.0
21121;DHT22;12519;43.318;21.898;2022-10-16T18:13:17;17.8;71.0
21121;DHT22;12519;43.318;21.898;2022-10-16T18:17:53;17.8;71.0
21121;DHT22;12519;43.318;21.898;2022-10-16T18:22:29;17.8;71.0
21121;DHT22;12519;43.318;21.898;2022-10-16T18:27:08;17.7;71.0
21121;DHT22;12519;43.318;21.898;2022-10-16T18:31:44;17.7;71.0
21121;DHT22;12519;43.318;21.898;2022-10-16T18:36:26;17.6;72.0
21121;DHT22;12519;43.318;21.898;2022-10-16T18:41:04;17.6;72.0
21121;DHT22;12519;43.318;21.898;2022-10-16T18:45:41;17.3;73.0
21121;DHT22;12519;43.318;21.898;2022-10-16T18:50:17;17.3;73.0
21121;DHT22;12519;43.318;21.898;2022-10-16T18:54:55;17.0;73.0
21121;DHT22;12519;43.318;21.898;2022-10-16T18:59:33;17.0;73.0
21121;DHT22;12519;43.318;21.898;2022-10-16T19:04:16;17.0;74.0
21121;DHT22;12519;43.318;21.898;2022-10-16T19:08:56;17.0;74.0
21121;DHT22;12519;43.318;21.898;2022-10-16T19:13:34;16.9;74.0
21121;DHT22;12519;43.318;21.898;2022-10-16T19:18:12;16.9;74.0
21121;DHT22;12519;43.318;21.898;2022-10-16T19:22:49;16.9;74.0
21121;DHT22;12519;43.318;21.898;2022-10-16T19:27:26;16.8;75.0
21121;DHT22;12519;43.318;21.898;2022-10-16T19:32:04;16.8;75.0
21121;DHT22;12519;43.318;21.898;2022-10-16T19:36:41;16.7;75.0
21121;DHT22;12519;43.318;21.898;2022-10-16T19:41:20;16.7;75.0
21121;DHT22;12519;43.318;21.898;2022-10-16T19:46:07;16.6;75.0
21121;DHT22;12519;43.318;21.898;2022-10-16T19:50:50;16.6;75.0
21121;DHT22;12519;43.318;21.898;2022-10-16T19:55:30;16.6;75.0
21121;DHT22;12519;43.318;21.898;2022-10-16T20:00:10;16.6;75.0
21121;DHT22;12519;43.318;21.898;2022-10-16T20:04:49;16.5;76.0
21121;DHT22;12519;43.318;21.898;2022-10-16T20:09:26;16.5;76.0
21121;DHT22;12519;43.318;21.898;2022-10-16T20:14:05;16.3;76.0
21121;DHT22;12519;43.318;21.898;2022-10-16T20:18:42;16.3;76.0
21121;DHT22;12519;43.318;21.898;2022-10-16T20:23:23;16.3;76.0
21121;DHT22;12519;43.318;21.898;2022-10-16T20:28:00;16.2;76.0
21121;DHT22;12519;43.318;21.898;2022-10-16T20:32:36;16.2;76.0
21121;DHT22;12519;43.318;21.898;2022-10-16T20:37:13;16.2;77.0
21121;DHT22;12519;43.318;21.898;2022-10-16T20:41:50;16.2;77.0
21121;DHT22;12519;43.318;21.898;2022-10-16T20:46:28;16.0;77.0
21121;DHT22;12519;43.318;21.898;2022-10-16T20:51:16;16.0;77.0
21121;DHT22;12519;43.318;21.898;2022-10-16T20:55:53;15.9;78.0
21121;DHT22;12519;43.318;21.898;2022-10-16T21:00:30;15.9;78.0
21121;DHT22;12519;43.318;21.898;2022-10-16T21:05:08;15.8;79.0
21121;DHT22;12519;43.318;21.898;2022-10-16T21:09:44;15.8;79.0
21121;DHT22;12519;43.318;21.898;2022-10-16T21:14:21;15.8;80.0
21121;DHT22;12519;43.318;21.898;2022-10-16T21:18:57;15.8;80.0
21121;DHT22;12519;43.318;21.898;2022-10-16T21:23:34;15.8;80.0
21121;DHT22;12519;43.318;21.898;2022-10-16T21:28:10;15.8;80.0
21121;DHT22;12519;43.318;21.898;2022-10-16T21:32:46;15.8;80.0
21121;DHT22;12519;43.318;21.898;2022-10-16T21:37:23;15.7;79.0
21121;DHT22;12519;43.318;21.898;2022-10-16T21:42:00;15.7;79.0
21121;DHT22;12519;43.318;21.898;2022-10-16T21:46:42;15.6;80.0
21121;DHT22;12519;43.318;21.898;2022-10-16T21:51:29;15.6;80.0
21121;DHT22;12519;43.318;21.898;2022-10-16T21:56:15;15.4;80.0
21121;DHT22;12519;43.318;21.898;2022-10-16T22:00:53;15.4;80.0
21121;DHT22;12519;43.318;21.898;2022-10-16T22:05:33;15.2;81.0
21121;DHT22;12519;43.318;21.898;2022-10-16T22:10:10;15.2;81.0
21121;DHT22;12519;43.318;21.898;2022-10-16T22:14:47;15.0;81.0
21121;DHT22;12519;43.318;21.898;2022-10-16T22:19:24;15.0;81.0
21121;DHT22;12519;43.318;21.898;2022-10-16T22:24:01;14.9;82.0
21121;DHT22;12519;43.318;21.898;2022-10-16T22:28:40;14.9;82.0
21121;DHT22;12519;43.318;21.898;2022-10-16T22:33:18;14.9;82.0
21121;DHT22;12519;43.318;21.898;2022-10-16T22:37:55;14.8;82.0
21121;DHT22;12519;43.318;21.898;2022-10-16T22:42:32;14.8;82.0
21121;DHT22;12519;43.318;21.898;2022-10-16T22:47:09;14.7;82.0
21121;DHT22;12519;43.318;21.898;2022-10-16T22:51:46;14.7;82.0
21121;DHT22;12519;43.318;21.898;2022-10-16T22:56:25;14.6;83.0
21121;DHT22;12519;43.318;21.898;2022-10-16T23:01:13;14.6;83.0
21121;DHT22;12519;43.318;21.898;2022-10-16T23:06:03;14.6;83.0
21121;DHT22;12519;43.318;21.898;2022-10-16T23:10:47;14.6;83.0
21121;DHT22;12519;43.318;21.898;2022-10-16T23:15:24;14.7;83.0
21121;DHT22;12519;43.318;21.898;2022-10-16T23:20:02;14.7;83.0
21121;DHT22;12519;43.318;21.898;2022-10-16T23:24:41;14.6;83.0
21121;DHT22;12519;43.318;21.898;2022-10-16T23:29:18;14.6;83.0
21121;DHT22;12519;43.318;21.898;2022-10-16T23:33:57;14.5;83.0
21121;DHT22;12519;43.318;21.898;2022-10-16T23:38:34;14.5;83.0
21121;DHT22;12519;43.318;21.898;2022-10-16T23:43:10;14.5;83.0
21121;DHT22;12519;43.318;21.898;2022-10-16T23:47:47;14.2;84.0
21121;DHT22;12519;43.318;21.898;2022-10-16T23:52:23;14.2;84.0
21121;DHT22;12519;43.318;21.898;2022-10-16T23:56:59;14.0;84.0
